createdAt,value
2018-09-07T00:00:59.540Z,62.50
2018-09-07T00:03:29.507Z,62.53
2018-09-07T00:05:58.755Z,61.90
2018-09-07T00:08:28.179Z,62.09
2018-09-07T00:10:57.368Z,62.30
2018-09-07T00:13:26.714Z,62.46
2018-09-07T00:15:55.845Z,62.14
2018-09-07T00:18:25.747Z,62.37
2018-09-07T00:20:54.811Z,62.63
2018-09-07T00:23:24.114Z,62.49
2018-09-07T00:25:53.108Z,62.47
2018-09-07T00:28:23.046Z,63.20
2018-09-07T00:30:52.719Z,63.03
2018-09-07T00:33:22.379Z,62.98
2018-09-07T00:35:51.346Z,63.26
2018-09-07T00:38:20.719Z,63.53
2018-09-07T00:40:49.931Z,63.35
2018-09-07T00:43:19.303Z,62.74
2018-09-07T00:45:49.048Z,62.55
2018-09-07T00:48:18.365Z,63.09
2018-09-07T00:50:47.562Z,63.16
2018-09-07T00:53:16.657Z,62.83
2018-09-07T00:55:45.856Z,62.73
2018-09-07T00:58:14.939Z,62.88
2018-09-07T01:00:44.287Z,62.74
2018-09-07T01:03:13.209Z,62.82
2018-09-07T01:05:42.139Z,62.71
2018-09-07T01:08:11.462Z,63.73
2018-09-07T01:10:40.578Z,62.77
2018-09-07T01:13:09.896Z,62.93
2018-09-07T01:15:38.997Z,62.92
2018-09-07T01:18:08.068Z,63.43
2018-09-07T01:20:37.323Z,63.40
2018-09-07T01:23:07.003Z,63.66
2018-09-07T01:25:36.213Z,63.03
2018-09-07T01:28:05.405Z,63.18
2018-09-07T01:30:34.586Z,62.98
2018-09-07T01:33:03.780Z,63.31
2018-09-07T01:35:33.398Z,63.25
2018-09-07T01:38:07.780Z,63.31
2018-09-07T01:40:37.107Z,63.09
2018-09-07T01:43:06.534Z,63.55
2018-09-07T01:45:35.854Z,63.13
2018-09-07T01:48:05.053Z,63.82
2018-09-07T01:50:34.323Z,63.80
2018-09-07T01:53:03.932Z,63.13
2018-09-07T01:55:33.243Z,63.77
2018-09-07T01:58:02.748Z,63.93
2018-09-07T02:00:32.073Z,63.33
2018-09-07T02:03:06.285Z,63.36
2018-09-07T02:05:36.228Z,64.25
2018-09-07T02:08:06.029Z,64.10
2018-09-07T02:10:35.135Z,64.07
2018-09-07T02:13:04.245Z,63.85
2018-09-07T02:15:33.365Z,64.29
2018-09-07T02:18:02.463Z,64.13
2018-09-07T02:20:31.731Z,64.09
2018-09-07T02:23:00.966Z,63.82
2018-09-07T02:25:30.507Z,63.91
2018-09-07T02:27:59.699Z,63.90
2018-09-07T02:30:29.014Z,64.64
2018-09-07T02:32:58.464Z,64.17
2018-09-07T02:35:27.933Z,64.31
2018-09-07T02:37:57.116Z,64.86
2018-09-07T02:40:26.470Z,64.32
2018-09-07T02:42:55.615Z,64.59
2018-09-07T02:45:24.987Z,64.40
2018-09-07T02:47:54.152Z,64.93
2018-09-07T02:50:23.327Z,65.34
2018-09-07T02:52:53.062Z,65.13
2018-09-07T02:55:22.267Z,64.44
2018-09-07T02:57:52.529Z,65.31
2018-09-07T03:00:21.606Z,64.83
2018-09-07T03:02:50.619Z,65.28
2018-09-07T03:05:19.914Z,64.81
2018-09-07T03:07:48.982Z,65.51
2018-09-07T03:10:18.152Z,64.67
2018-09-07T03:12:47.315Z,64.65
2018-09-07T03:15:16.618Z,64.68
2018-09-07T03:17:45.640Z,65.52
2018-09-07T03:20:14.684Z,65.47
2018-09-07T03:22:44.099Z,65.10
2018-09-07T03:25:13.325Z,65.86
2018-09-07T03:27:43.290Z,65.45
2018-09-07T03:30:12.932Z,64.96
2018-09-07T03:32:42.113Z,65.83
2018-09-07T03:35:11.450Z,65.71
2018-09-07T03:37:40.912Z,65.22
2018-09-07T03:40:09.918Z,65.42
2018-09-07T03:42:39.835Z,65.66
2018-09-07T03:45:09.138Z,65.76
2018-09-07T03:47:38.183Z,65.98
2018-09-07T03:50:08.280Z,65.95
2018-09-07T03:52:37.458Z,66.01
2018-09-07T03:55:07.133Z,65.74
2018-09-07T03:57:36.221Z,66.28
2018-09-07T04:00:05.262Z,65.97
2018-09-07T04:02:34.404Z,66.07
2018-09-07T04:05:03.730Z,65.91
2018-09-07T04:07:33.458Z,65.99
2018-09-07T04:10:02.693Z,65.92
2018-09-07T04:12:32.577Z,65.53
2018-09-07T04:15:01.767Z,65.33
2018-09-07T04:17:30.966Z,64.47
2018-09-07T04:20:00.011Z,64.22
2018-09-07T04:22:29.606Z,64.41
2018-09-07T04:24:59.460Z,64.68
2018-09-07T04:27:28.669Z,64.74
2018-09-07T04:29:57.958Z,63.60
2018-09-07T04:32:27.063Z,63.51
2018-09-07T04:34:56.418Z,63.78
2018-09-07T04:37:25.713Z,63.41
2018-09-07T04:39:55.645Z,63.53
2018-09-07T04:42:24.812Z,63.31
2018-09-07T04:44:54.196Z,63.94
2018-09-07T04:47:23.416Z,63.97
2018-09-07T04:49:52.707Z,64.22
2018-09-07T04:52:21.941Z,64.30
2018-09-07T04:54:51.345Z,64.28
2018-09-07T04:57:20.550Z,64.10
2018-09-07T04:59:49.710Z,63.99
2018-09-07T05:02:19.561Z,63.76
2018-09-07T05:04:49.033Z,63.64
2018-09-07T05:07:18.412Z,63.92
2018-09-07T05:09:47.728Z,64.28
2018-09-07T05:12:16.865Z,64.29
2018-09-07T05:14:46.333Z,64.39
2018-09-07T05:17:15.676Z,63.60
2018-09-07T05:19:44.808Z,64.49
2018-09-07T05:22:14.119Z,64.20
2018-09-07T05:24:43.381Z,63.79
2018-09-07T05:27:12.573Z,63.56
2018-09-07T05:29:41.727Z,63.45
2018-09-07T05:32:10.877Z,63.25
2018-09-07T05:34:39.818Z,62.88
2018-09-07T05:37:08.780Z,63.31
2018-09-07T05:39:37.969Z,63.46
2018-09-07T05:42:07.269Z,62.74
2018-09-07T05:44:36.549Z,62.28
2018-09-07T05:47:05.735Z,62.61
2018-09-07T05:49:35.080Z,62.70
2018-09-07T05:52:04.282Z,62.24
2018-09-07T05:54:33.897Z,61.97
2018-09-07T05:57:03.181Z,62.08
2018-09-07T05:59:32.415Z,61.47
2018-09-07T06:02:01.593Z,61.55
2018-09-07T06:04:31.212Z,61.06
2018-09-07T06:07:00.141Z,61.51
2018-09-07T06:09:29.097Z,62.08
2018-09-07T06:11:58.143Z,61.53
2018-09-07T06:14:27.233Z,62.08
2018-09-07T06:16:56.540Z,61.63
2018-09-07T06:19:25.584Z,62.48
2018-09-07T06:21:54.910Z,61.72
2018-09-07T06:24:24.059Z,61.76
2018-09-07T06:26:53.172Z,62.34
2018-09-07T06:29:22.453Z,61.61
2018-09-07T06:31:51.595Z,61.42
2018-09-07T06:34:20.823Z,61.58
2018-09-07T06:36:50.284Z,61.35
2018-09-07T06:39:19.717Z,61.39
2018-09-07T06:41:49.137Z,60.90
2018-09-07T06:44:19.041Z,60.94
2018-09-07T06:46:48.319Z,60.28
2018-09-07T06:49:17.689Z,59.90
2018-09-07T06:51:50.802Z,60.53
2018-09-07T06:54:19.988Z,59.72
2018-09-07T06:56:49.781Z,60.04
2018-09-07T06:59:18.851Z,59.64
2018-09-07T07:01:48.345Z,60.44
2018-09-07T07:04:17.661Z,59.93
2018-09-07T07:06:46.818Z,59.74
2018-09-07T07:09:15.985Z,59.43
2018-09-07T07:11:45.086Z,59.23
2018-09-07T07:14:14.441Z,58.35
2018-09-07T07:16:43.503Z,58.01
2018-09-07T07:19:12.688Z,58.55
2018-09-07T07:21:43.002Z,58.39
2018-09-07T07:24:12.176Z,58.09
2018-09-07T07:26:41.396Z,57.18
2018-09-07T07:29:10.616Z,57.98
2018-09-07T07:31:39.823Z,57.34
2018-09-07T07:34:09.194Z,58.02
2018-09-07T07:36:38.455Z,57.15
2018-09-07T07:39:09.113Z,57.49
2018-09-07T07:41:38.808Z,56.82
2018-09-07T07:44:07.768Z,57.18
2018-09-07T07:46:36.929Z,57.19
2018-09-07T07:49:06.095Z,57.46
2018-09-07T07:51:36.533Z,57.84
2018-09-07T07:54:06.100Z,57.66
2018-09-07T07:56:35.554Z,57.99
2018-09-07T07:59:04.561Z,57.41
2018-09-07T08:01:33.837Z,57.33
2018-09-07T08:04:02.843Z,57.37
2018-09-07T08:06:32.097Z,57.72
2018-09-07T08:09:01.573Z,57.79
2018-09-07T08:11:31.590Z,57.44
2018-09-07T08:14:00.659Z,58.13
2018-09-07T08:16:30.099Z,58.00
2018-09-07T08:18:59.175Z,57.45
2018-09-07T08:21:28.214Z,57.89
2018-09-07T08:23:57.230Z,56.97
2018-09-07T08:26:26.378Z,56.47
2018-09-07T08:28:55.650Z,57.00
2018-09-07T08:31:24.804Z,56.48
2018-09-07T08:33:54.370Z,56.43
2018-09-07T08:36:23.531Z,56.00
2018-09-07T08:38:52.823Z,55.75
2018-09-07T08:41:22.125Z,55.18
2018-09-07T08:43:51.302Z,54.92
2018-09-07T08:46:20.488Z,55.26
2018-09-07T08:48:50.112Z,54.60
2018-09-07T08:51:19.379Z,55.39
2018-09-07T08:53:48.555Z,55.14
2018-09-07T08:56:17.609Z,54.84
2018-09-07T08:58:52.124Z,55.09
2018-09-07T09:01:21.080Z,55.12
2018-09-07T09:03:50.800Z,54.84
2018-09-07T09:06:19.967Z,54.66
2018-09-07T09:08:49.622Z,55.28
2018-09-07T09:11:18.722Z,55.02
2018-09-07T09:13:47.837Z,54.86
2018-09-07T09:16:16.918Z,54.22
2018-09-07T09:18:45.845Z,54.96
2018-09-07T09:21:21.393Z,53.23
2018-09-07T09:23:50.529Z,53.35
2018-09-07T09:26:19.763Z,53.38
2018-09-07T09:28:48.957Z,52.70
2018-09-07T09:31:18.131Z,52.33
2018-09-07T09:33:47.072Z,52.65
2018-09-07T09:36:16.258Z,52.20
2018-09-07T09:38:46.023Z,52.57
2018-09-07T09:41:15.231Z,52.75
2018-09-07T09:43:44.222Z,52.65
2018-09-07T09:46:13.413Z,51.94
2018-09-07T09:48:42.454Z,51.54
2018-09-07T09:51:12.430Z,51.70
2018-09-07T09:53:41.464Z,51.67
2018-09-07T09:56:11.143Z,51.34
2018-09-07T09:58:40.169Z,51.49
2018-09-07T10:01:14.428Z,50.64
2018-09-07T10:03:47.764Z,50.86
2018-09-07T10:06:17.102Z,50.48
2018-09-07T10:08:46.103Z,49.91
2018-09-07T10:11:15.289Z,49.02
2018-09-07T10:13:44.417Z,49.48
2018-09-07T10:16:13.525Z,48.57
2018-09-07T10:18:42.670Z,47.76
2018-09-07T10:21:11.823Z,47.19
2018-09-07T10:23:40.915Z,46.76
2018-09-07T10:26:09.955Z,47.47
2018-09-07T10:28:39.026Z,45.95
2018-09-07T10:31:08.180Z,45.31
2018-09-07T10:33:37.293Z,43.87
2018-09-07T10:36:06.429Z,44.29
2018-09-07T10:38:35.478Z,44.85
2018-09-07T10:41:04.523Z,44.73
2018-09-07T10:43:33.587Z,43.43
2018-09-07T10:46:02.845Z,42.60
2018-09-07T10:48:32.241Z,42.46
2018-09-07T10:51:01.292Z,42.28
2018-09-07T10:53:30.530Z,42.07
2018-09-07T10:55:59.695Z,40.17
2018-09-07T10:58:30.130Z,39.81
2018-09-07T11:00:59.296Z,40.83
2018-09-07T11:03:28.467Z,41.04
2018-09-07T11:05:57.305Z,41.64
2018-09-07T11:08:27.033Z,42.45
2018-09-07T11:10:56.077Z,41.97
2018-09-07T11:13:25.188Z,39.91
2018-09-07T11:16:00.839Z,39.40
2018-09-07T11:18:30.293Z,39.88
2018-09-07T11:20:59.560Z,40.94
2018-09-07T11:23:29.599Z,41.07
2018-09-07T11:25:58.909Z,41.90
2018-09-07T11:28:28.202Z,42.67
2018-09-07T11:30:57.827Z,44.81
2018-09-07T11:33:27.430Z,46.81
2018-09-07T11:35:56.699Z,46.26
2018-09-07T11:38:25.975Z,46.71
2018-09-07T11:40:55.253Z,46.44
2018-09-07T11:43:25.660Z,46.67
2018-09-07T11:45:55.122Z,46.12
2018-09-07T11:48:24.160Z,47.08
2018-09-07T11:50:53.358Z,47.25
2018-09-07T11:53:22.528Z,47.69
2018-09-07T11:55:52.035Z,47.27
2018-09-07T11:58:21.166Z,47.86
2018-09-07T12:00:51.110Z,46.92
2018-09-07T12:03:20.296Z,47.04
2018-09-07T12:05:49.443Z,46.87
2018-09-07T12:08:18.660Z,45.96
2018-09-07T12:10:47.996Z,45.39
2018-09-07T12:13:17.443Z,45.12
2018-09-07T12:15:46.587Z,45.04
2018-09-07T12:18:15.706Z,44.42
2018-09-07T12:20:44.946Z,42.18
2018-09-07T12:23:14.461Z,42.18
2018-09-07T12:25:43.485Z,43.80
2018-09-07T12:28:12.604Z,41.55
2018-09-07T12:30:41.875Z,41.40
2018-09-07T12:33:11.042Z,42.30
2018-09-07T12:35:42.432Z,41.20
2018-09-07T12:38:11.563Z,39.68
2018-09-07T12:40:40.776Z,40.99
2018-09-07T12:43:10.688Z,42.80
2018-09-07T12:45:39.891Z,43.52
2018-09-07T12:48:09.124Z,42.93
2018-09-07T12:50:38.235Z,43.67
2018-09-07T12:53:09.187Z,42.65
2018-09-07T12:55:38.578Z,40.91
2018-09-07T12:58:07.595Z,38.33
2018-09-07T13:00:36.717Z,39.17
2018-09-07T13:03:05.970Z,39.45
2018-09-07T13:05:40.497Z,39.34
2018-09-07T13:08:09.634Z,39.38
2018-09-07T13:10:39.274Z,39.21
2018-09-07T13:13:08.239Z,39.00
2018-09-07T13:15:37.654Z,38.47
2018-09-07T13:18:07.004Z,38.24
2018-09-07T13:20:36.820Z,38.52
2018-09-07T13:23:06.164Z,37.61
2018-09-07T13:25:35.319Z,38.13
2018-09-07T13:28:04.716Z,38.23
2018-09-07T13:30:34.148Z,36.12
2018-09-07T13:33:03.295Z,36.35
2018-09-07T13:35:32.350Z,35.72
2018-09-07T13:38:02.524Z,35.54
2018-09-07T13:40:31.590Z,35.24
2018-09-07T13:43:07.006Z,35.41
2018-09-07T13:45:36.308Z,36.36
2018-09-07T13:48:05.503Z,36.94
2018-09-07T13:50:35.086Z,36.84
2018-09-07T13:53:04.263Z,37.50
2018-09-07T13:55:33.200Z,37.28
2018-09-07T13:58:02.284Z,37.45
2018-09-07T14:00:32.129Z,37.69
2018-09-07T14:03:01.389Z,39.11
2018-09-07T14:05:30.453Z,39.72
2018-09-07T14:07:59.421Z,40.05
2018-09-07T14:10:28.868Z,40.51
2018-09-07T14:12:58.213Z,39.93
2018-09-07T14:15:27.348Z,39.65
2018-09-07T14:17:59.272Z,40.31
2018-09-07T14:20:28.377Z,40.12
2018-09-07T14:22:57.772Z,40.66
2018-09-07T14:25:26.771Z,40.34
2018-09-07T14:27:55.782Z,39.93
2018-09-07T14:30:24.920Z,40.30
2018-09-07T14:32:53.947Z,40.69
2018-09-07T14:35:23.147Z,41.11
2018-09-07T14:37:52.455Z,41.48
2018-09-07T14:40:21.799Z,42.30
2018-09-07T14:42:50.877Z,42.41
2018-09-07T14:45:20.314Z,42.25
2018-09-07T14:47:49.417Z,42.95
2018-09-07T14:50:19.803Z,43.70
2018-09-07T14:52:49.176Z,43.43
2018-09-07T14:55:18.117Z,43.88
2018-09-07T14:57:47.631Z,43.44
2018-09-07T15:00:16.913Z,44.65
2018-09-07T15:02:46.017Z,44.89
2018-09-07T15:05:15.218Z,45.12
2018-09-07T15:07:44.658Z,45.12
2018-09-07T15:10:13.744Z,46.75
2018-09-07T15:12:42.986Z,47.24
2018-09-07T15:15:11.983Z,47.72
2018-09-07T15:17:41.064Z,47.92
2018-09-07T15:20:10.259Z,48.98
2018-09-07T15:22:39.234Z,49.07
2018-09-07T15:25:08.252Z,49.82
2018-09-07T15:27:37.721Z,49.80
2018-09-07T15:30:07.267Z,49.79
2018-09-07T15:32:37.324Z,50.11
2018-09-07T15:35:06.740Z,50.46
2018-09-07T15:37:35.892Z,51.12
2018-09-07T15:40:05.605Z,51.31
2018-09-07T15:42:34.946Z,50.65
2018-09-07T15:45:04.476Z,50.79
2018-09-07T15:47:33.664Z,51.48
2018-09-07T15:50:02.806Z,51.50
2018-09-07T15:52:32.055Z,51.33
2018-09-07T15:55:01.360Z,51.89
2018-09-07T15:57:30.925Z,52.02
2018-09-07T16:00:00.091Z,51.17
2018-09-07T16:02:30.322Z,50.95
2018-09-07T16:05:00.345Z,51.70
2018-09-07T16:07:29.463Z,51.13
2018-09-07T16:09:58.637Z,51.97
2018-09-07T16:12:27.650Z,51.67
2018-09-07T16:14:57.055Z,52.58
2018-09-07T16:17:26.247Z,52.07
2018-09-07T16:19:55.455Z,52.57
2018-09-07T16:22:24.447Z,52.97
2018-09-07T16:25:00.489Z,53.51
2018-09-07T16:27:29.536Z,54.46
2018-09-07T16:29:58.889Z,54.17
2018-09-07T16:32:28.007Z,54.36
2018-09-07T16:34:57.675Z,54.83
2018-09-07T16:37:26.847Z,55.22
2018-09-07T16:39:55.914Z,56.30
2018-09-07T16:42:25.320Z,56.31
2018-09-07T16:44:54.486Z,56.76
2018-09-07T16:47:23.543Z,57.53
2018-09-07T16:49:52.899Z,57.85
2018-09-07T16:52:22.128Z,58.18
2018-09-07T16:54:51.313Z,57.98
2018-09-07T16:57:20.500Z,58.35
2018-09-07T16:59:49.631Z,58.70
2018-09-07T17:02:18.691Z,58.87
2018-09-07T17:04:48.062Z,59.06
2018-09-07T17:07:17.624Z,58.68
2018-09-07T17:09:47.660Z,58.83
2018-09-07T17:12:16.809Z,59.38
2018-09-07T17:14:45.787Z,59.97
2018-09-07T17:17:15.350Z,59.27
2018-09-07T17:19:44.430Z,60.15
2018-09-07T17:22:13.930Z,60.45
2018-09-07T17:24:43.160Z,60.70
2018-09-07T17:27:12.209Z,60.47
2018-09-07T17:29:41.687Z,60.98
2018-09-07T17:32:11.210Z,60.88
2018-09-07T17:34:40.652Z,60.89
2018-09-07T17:37:09.989Z,61.25
2018-09-07T17:39:39.120Z,60.95
2018-09-07T17:42:08.295Z,61.25
2018-09-07T17:44:37.740Z,61.37
2018-09-07T17:47:06.961Z,61.51
2018-09-07T17:49:36.090Z,62.52
2018-09-07T17:52:05.257Z,62.51
2018-09-07T17:54:34.477Z,61.86
2018-09-07T17:57:04.190Z,62.13
2018-09-07T17:59:33.352Z,62.36
2018-09-07T18:02:02.504Z,62.12
2018-09-07T18:04:31.654Z,62.61
2018-09-07T18:07:01.184Z,62.72
2018-09-07T18:09:30.190Z,62.50
2018-09-07T18:11:59.653Z,62.52
2018-09-07T18:14:29.544Z,62.71
2018-09-07T18:16:58.966Z,62.60
2018-09-07T18:19:28.013Z,62.75
2018-09-07T18:21:57.037Z,63.48
2018-09-07T18:24:26.322Z,62.77
2018-09-07T18:26:55.323Z,63.04
2018-09-07T18:29:24.410Z,63.30
2018-09-07T18:31:53.536Z,63.29
2018-09-07T18:34:22.469Z,63.23
2018-09-07T18:36:51.667Z,64.05
2018-09-07T18:39:20.727Z,63.28
2018-09-07T18:41:49.863Z,64.04
2018-09-07T18:44:18.985Z,63.71
2018-09-07T18:46:47.995Z,64.77
2018-09-07T18:49:17.070Z,64.85
2018-09-07T18:51:46.145Z,64.93
2018-09-07T18:54:15.377Z,64.77
2018-09-07T18:56:44.501Z,64.61
2018-09-07T18:59:14.683Z,65.16
2018-09-07T19:01:50.332Z,65.80
2018-09-07T19:04:19.915Z,65.74
2018-09-07T19:06:49.105Z,65.68
2018-09-07T19:09:19.138Z,65.33
2018-09-07T19:11:48.328Z,66.14
2018-09-07T19:14:17.220Z,66.07
2018-09-07T19:16:46.335Z,66.23
2018-09-07T19:19:16.066Z,65.98
2018-09-07T19:21:46.307Z,66.29
2018-09-07T19:24:15.574Z,65.97
2018-09-07T19:26:44.593Z,66.80
2018-09-07T19:29:13.935Z,66.75
2018-09-07T19:31:43.091Z,66.76
2018-09-07T19:34:12.359Z,66.67
2018-09-07T19:36:41.512Z,66.32
2018-09-07T19:39:10.652Z,66.74
2018-09-07T19:41:40.006Z,66.69
2018-09-07T19:44:09.184Z,67.12
2018-09-07T19:46:38.396Z,67.20
2018-09-07T19:49:07.791Z,66.64
2018-09-07T19:51:37.192Z,67.13
2018-09-07T19:54:06.177Z,66.63
2018-09-07T19:56:42.897Z,66.94
2018-09-07T19:59:12.122Z,66.91
2018-09-07T20:01:41.237Z,67.06
2018-09-07T20:04:10.553Z,66.68
2018-09-07T20:06:39.751Z,67.08
2018-09-07T20:09:09.071Z,66.35
2018-09-07T20:11:38.503Z,66.88
2018-09-07T20:14:08.012Z,66.27
2018-09-07T20:16:38.196Z,66.55
2018-09-07T20:19:07.300Z,66.36
2018-09-07T20:21:36.636Z,65.92
2018-09-07T20:24:05.676Z,66.23
2018-09-07T20:26:35.351Z,65.85
2018-09-07T20:29:04.373Z,65.72
2018-09-07T20:31:33.479Z,66.23
2018-09-07T20:34:09.298Z,66.26
2018-09-07T20:36:38.451Z,66.28
2018-09-07T20:39:09.778Z,66.05
2018-09-07T20:41:38.988Z,66.67
2018-09-07T20:44:08.297Z,66.68
2018-09-07T20:46:37.463Z,66.73
2018-09-07T20:49:06.721Z,66.42
2018-09-07T20:51:36.076Z,66.34
2018-09-07T20:54:05.125Z,65.82
2018-09-07T20:56:34.262Z,66.75
2018-09-07T20:59:03.270Z,66.09
2018-09-07T21:01:32.553Z,66.17
2018-09-07T21:04:01.580Z,66.39
2018-09-07T21:06:30.715Z,66.34
2018-09-07T21:09:00.664Z,67.02
2018-09-07T21:11:30.479Z,66.78
2018-09-07T21:13:59.774Z,66.92
2018-09-07T21:16:28.891Z,67.31
2018-09-07T21:18:58.091Z,67.23
2018-09-07T21:21:27.341Z,66.67
2018-09-07T21:23:56.749Z,66.92
2018-09-07T21:26:26.562Z,67.61
2018-09-07T21:28:56.157Z,67.85
2018-09-07T21:31:25.486Z,67.53
2018-09-07T21:33:55.026Z,67.76
2018-09-07T21:36:24.303Z,67.20
2018-09-07T21:38:53.624Z,67.76
2018-09-07T21:41:22.760Z,67.50
2018-09-07T21:43:51.958Z,67.84
2018-09-07T21:46:21.040Z,67.60
2018-09-07T21:48:50.133Z,67.41
2018-09-07T21:51:19.322Z,67.09
2018-09-07T21:53:48.476Z,67.68
2018-09-07T21:56:17.984Z,68.00
2018-09-07T21:58:47.087Z,67.00
2018-09-07T22:01:16.699Z,67.77
2018-09-07T22:03:46.166Z,67.70
2018-09-07T22:06:15.357Z,67.04
2018-09-07T22:08:44.470Z,67.61
2018-09-07T22:11:14.020Z,67.37
2018-09-07T22:13:43.211Z,67.25
2018-09-07T22:16:12.186Z,67.55
2018-09-07T22:18:43.594Z,67.95
2018-09-07T22:21:12.685Z,67.45
2018-09-07T22:23:41.786Z,67.72
2018-09-07T22:26:11.382Z,67.48
2018-09-07T22:28:40.321Z,68.02
2018-09-07T22:31:09.449Z,67.46
2018-09-07T22:33:38.439Z,67.25
2018-09-07T22:36:07.336Z,67.15
2018-09-07T22:38:36.415Z,67.78
2018-09-07T22:41:05.930Z,67.97
2018-09-07T22:43:35.058Z,68.14
2018-09-07T22:46:04.020Z,68.01
2018-09-07T22:48:33.391Z,67.71
2018-09-07T22:51:02.504Z,68.19
2018-09-07T22:53:31.910Z,68.37
2018-09-07T22:56:00.954Z,67.80
2018-09-07T22:58:29.982Z,68.43
2018-09-07T23:00:59.096Z,68.28
2018-09-07T23:03:28.258Z,68.92
2018-09-07T23:05:58.379Z,68.90
2018-09-07T23:08:28.108Z,69.33
2018-09-07T23:10:57.484Z,69.04
2018-09-07T23:13:27.294Z,69.64
2018-09-07T23:15:56.474Z,69.18
2018-09-07T23:18:25.507Z,69.17
2018-09-07T23:20:54.933Z,70.18
2018-09-07T23:23:24.078Z,70.21
2018-09-07T23:25:53.046Z,69.51
2018-09-07T23:28:22.353Z,70.30
2018-09-07T23:30:51.541Z,69.85
2018-09-07T23:33:20.670Z,70.16
2018-09-07T23:35:49.847Z,70.29
2018-09-07T23:38:22.006Z,70.71
2018-09-07T23:40:51.754Z,70.45
2018-09-07T23:43:20.684Z,70.44
2018-09-07T23:45:50.379Z,70.56
2018-09-07T23:48:19.784Z,70.91
2018-09-07T23:50:49.112Z,70.84
2018-09-07T23:53:18.091Z,71.29
2018-09-07T23:55:47.151Z,71.19
2018-09-07T23:58:16.291Z,70.93
